Weather at Nummela Airfield

Public forecast

Using degrees Celsius for public forecast. Weather courtesy of forecast.io.

Closest aviation weather report (METAR) to Nummela Airfield

Closest report is Helsinki Vantaa Airport, 19.8 nm (36.8 km) E.

2024/07/20 14:50 (retrieved 36 minutes ago)

EFHK 201450Z 33006KT 9999 VCSH FEW035CB 17/16 Q1009 NOSIG

Closest aviation forecast (TAF) to Nummela Airfield

Closest forecast is Helsinki Vantaa Airport, 19.8 nm (36.8 km) E.

2024/07/20 15:42 (retrieved 0 seconds ago)

TAF TAF EFHK 201437Z 2015/2115 35007KT 9999 FEW030CB TEMPO 2015/2019 SCT030 PROB30 TEMPO 2015/2019 7000 TSRA BECMG 2019/2021 SCT030 PROB40 TEMPO 2102/2106 2000 BR BKN004 TEMPO 2106/2109 BKN010 FEW020CB TEMPO 2109/2115 FEW020CB